aviador You're here:

OTHH Decoded Metar

in
Report Time2017-07-26 06:00:00
UTC Time2017-07-26 06:33:19
Flight Rules vfr VFR
Wind080° at 06 kt
W.Decomp.*RWY 16: 1.0 kt HW 5.9 kt LCW
W.Rank080° ranks 12
Current wind is below 080° avg. (7.4)
Visibility9000 m
Phenomena:N/A
Clouds:N/A
Expected CloudBase > 6,400 ft AGL from Temp-Dew spread
CeilingNone
Temp38°C
Dew Point22°C (40% RH)
Heat Index43.4°C
QNH0997 hPa
Raw Report
METAR OTHH 260600Z 08006KT 020V110 9000 NSC 38/22 Q0997 NOSIG=

Extra information for OTHH:More info

Social comments